Time;durP1;ratioP1;P1;durP2;ratioP2;P2;SDS_P1;SDS_P2;PMS_P1;PMS_P2;Temp;Humidity;BMP_temperature;BMP_pressure;BME280_temperature;BME280_humidity;BME280_pressure;Samples;Min_cycle;Max_cycle;Signal;HPM_P1;HPM_P2
2022/06/25 00:01:15;;;;;;;;;28.00;28.00;29.40;47.40;;;;;;5095984;28;8772;-80
2022/06/25 00:03:42;;;;;;;;;25.00;25.00;29.30;47.10;;;;;;5095853;28;9453;-80
2022/06/25 00:06:08;;;;;;;;;28.67;28.67;29.40;47.90;;;;;;5095912;28;8764;-80
2022/06/25 00:08:36;;;;;;;;;26.33;26.33;29.40;47.90;;;;;;5096265;28;8822;-80
2022/06/25 00:11:02;;;;;;;;;26.67;26.67;29.40;48.10;;;;;;5095927;28;8755;-80
2022/06/25 00:13:28;;;;;;;;;27.67;27.67;29.40;48.20;;;;;;5096091;28;9440;-80
2022/06/25 00:15:54;;;;;;;;;27.00;27.00;29.30;48.50;;;;;;5095948;28;8756;-80
2022/06/25 00:18:20;;;;;;;;;28.00;28.00;29.30;49.00;;;;;;5095677;28;8791;-81
2022/06/25 00:20:46;;;;;;;;;28.67;28.67;29.30;49.00;;;;;;5095717;28;8752;-80
2022/06/25 00:23:13;;;;;;;;;30.67;30.00;29.10;48.00;;;;;;5096112;28;8763;-79
2022/06/25 00:25:39;;;;;;;;;29.00;29.00;29.10;48.20;;;;;;5096037;28;8764;-79
2022/06/25 00:28:06;;;;;;;;;26.33;26.33;29.10;49.10;;;;;;5095560;28;8756;-80
2022/06/25 00:30:32;;;;;;;;;30.33;30.00;29.10;49.10;;;;;;5095538;28;8780;-80
2022/06/25 00:32:58;;;;;;;;;27.67;27.67;29.10;49.40;;;;;;5095389;28;8756;-80
2022/06/25 00:35:25;;;;;;;;;32.67;31.67;29.10;49.30;;;;;;5095242;28;8792;-80
2022/06/25 00:37:51;;;;;;;;;41.33;36.33;29.00;49.60;;;;;;5095477;28;8808;-80
2022/06/25 00:40:16;;;;;;;;;40.67;36.00;28.90;50.20;;;;;;5095456;28;8796;-80
2022/06/25 00:42:44;;;;;;;;;32.33;31.33;29.00;50.60;;;;;;5095407;28;8787;-80
2022/06/25 00:45:10;;;;;;;;;28.33;28.33;29.10;50.90;;;;;;5095385;28;8768;-80
2022/06/25 00:47:36;;;;;;;;;25.33;24.33;29.00;50.10;;;;;;5095455;28;9461;-80
2022/06/25 00:50:02;;;;;;;;;27.33;26.33;28.90;50.10;;;;;;5095394;28;8779;-79
2022/06/25 00:52:32;;;;;;;;;28.33;28.33;28.80;50.30;;;;;;5095135;28;8779;-79
2022/06/25 00:55:06;;;;;;;;;26.00;26.00;28.80;50.50;;;;;;5095038;28;9507;-79
2022/06/25 00:57:34;;;;;;;;;25.33;25.33;28.80;50.50;;;;;;5094939;28;8878;-80
2022/06/25 01:00:09;;;;;;;;;27.00;27.00;28.70;50.70;;;;;;5076909;28;8760;-80
2022/06/25 01:02:36;;;;;;;;;43.67;38.00;28.70;51.20;;;;;;5095236;28;8779;-80
2022/06/25 01:05:09;;;;;;;;;46.33;40.33;28.70;51.10;;;;;;5094901;28;9448;-80
2022/06/25 01:07:36;;;;;;;;;38.33;35.33;28.60;51.20;;;;;;5095048;28;9422;-79
2022/06/25 01:10:04;;;;;;;;;46.33;40.33;28.60;51.90;;;;;;5094319;28;8770;-79
2022/06/25 01:12:30;;;;;;;;;55.25;46.00;28.60;51.70;;;;;;5095261;28;8740;-79
2022/06/25 01:15:18;;;;;;;;;46.67;40.33;28.50;51.50;;;;;;5094724;28;9572;-79
2022/06/25 01:17:46;;;;;;;;;40.00;36.00;28.50;51.10;;;;;;5094915;28;8792;-79
2022/06/25 01:20:14;;;;;;;;;30.33;30.00;28.60;50.50;;;;;;5095065;28;9514;-79
2022/06/25 01:22:40;;;;;;;;;41.67;36.67;28.60;50.40;;;;;;5094797;28;8764;-78
2022/06/25 01:25:11;;;;;;;;;39.33;36.00;28.50;50.00;;;;;;5094755;28;8783;-79
2022/06/25 01:27:37;;;;;;;;;39.33;35.67;28.50;50.60;;;;;;5095030;28;8748;-79
2022/06/25 01:30:04;;;;;;;;;38.67;35.00;28.40;50.60;;;;;;5094602;28;8764;-79
2022/06/25 01:32:30;;;;;;;;;41.33;37.33;28.40;50.70;;;;;;5094548;28;8764;-79
2022/06/25 01:34:56;;;;;;;;;36.00;34.00;28.30;50.70;;;;;;5094791;28;8888;-79
2022/06/25 01:37:22;;;;;;;;;39.33;35.33;28.40;50.50;;;;;;5094613;28;8806;-79
2022/06/25 01:39:55;;;;;;;;;46.00;39.67;28.40;50.30;;;;;;5094485;28;8772;-79
2022/06/25 01:45:08;;;;;;;;;32.00;31.00;28.40;50.20;;;;;;5079632;28;8731;-80
2022/06/25 01:47:33;;;;;;;;;31.67;31.00;28.40;50.10;;;;;;5094494;28;8783;-80
2022/06/25 01:49:59;;;;;;;;;30.00;30.00;28.40;49.70;;;;;;5094615;28;8772;-79
2022/06/25 01:52:25;;;;;;;;;28.67;28.67;28.30;49.30;;;;;;5094461;28;8790;-80
2022/06/25 01:54:51;;;;;;;;;28.00;28.00;28.40;49.50;;;;;;5094569;28;8791;-80
2022/06/25 01:57:17;;;;;;;;;30.00;30.00;28.40;49.20;;;;;;5094275;28;9428;-80
2022/06/25 01:59:46;;;;;;;;;28.33;28.33;28.40;49.50;;;;;;5094575;28;8843;-80
2022/06/25 02:02:13;;;;;;;;;36.67;34.33;28.40;49.60;;;;;;5094316;28;8764;-79
2022/06/25 02:04:39;;;;;;;;;35.33;33.00;28.30;49.50;;;;;;5094494;28;8792;-80
2022/06/25 02:07:05;;;;;;;;;45.67;39.33;28.30;49.70;;;;;;5094416;28;8760;-79
2022/06/25 02:09:31;;;;;;;;;51.33;44.33;28.30;49.50;;;;;;5094282;28;8945;-79
2022/06/25 02:11:56;;;;;;;;;53.33;45.33;28.30;49.70;;;;;;5094268;28;8764;-79
2022/06/25 02:14:22;;;;;;;;;54.33;46.33;28.20;49.70;;;;;;5094143;28;8803;-79
2022/06/25 02:16:48;;;;;;;;;51.33;44.33;28.20;49.70;;;;;;5094233;28;8832;-80
2022/06/25 02:19:14;;;;;;;;;50.00;42.33;28.20;49.70;;;;;;5093942;28;8816;-79
2022/06/25 02:21:40;;;;;;;;;48.00;41.67;28.20;49.80;;;;;;5077654;28;8779;-79
2022/06/25 02:24:06;;;;;;;;;41.00;36.67;28.30;50.10;;;;;;5098095;28;8791;-81
2022/06/25 02:26:32;;;;;;;;;38.67;35.33;28.20;50.50;;;;;;5098256;28;8776;-79
2022/06/25 02:28:57;;;;;;;;;35.33;33.67;28.20;50.40;;;;;;5098063;28;9373;-79
2022/06/25 02:31:23;;;;;;;;;29.67;29.67;28.10;50.90;;;;;;5097873;28;8771;-80
2022/06/25 02:33:49;;;;;;;;;28.67;28.67;28.00;51.10;;;;;;5098085;28;8819;-80
2022/06/25 02:36:15;;;;;;;;;29.33;29.33;28.00;51.20;;;;;;5098179;28;8748;-79
2022/06/25 02:38:40;;;;;;;;;33.67;32.67;28.10;51.10;;;;;;5098123;28;8784;-79
2022/06/25 02:41:06;;;;;;;;;30.00;30.00;28.10;51.20;;;;;;5097772;28;8844;-80
2022/06/25 02:43:32;;;;;;;;;33.33;32.33;28.10;51.30;;;;;;5097714;28;8767;-81
2022/06/25 02:45:58;;;;;;;;;29.00;29.00;28.10;51.70;;;;;;5097861;28;8768;-81
2022/06/25 02:48:23;;;;;;;;;32.67;31.67;28.20;52.10;;;;;;5097719;28;8772;-81
2022/06/25 02:50:49;;;;;;;;;30.00;30.00;28.20;51.50;;;;;;5097761;28;9417;-80
2022/06/25 02:53:15;;;;;;;;;28.67;28.67;28.30;51.00;;;;;;5097351;28;8768;-80
2022/06/25 03:01:09;;;;;;;;;31.33;30.67;28.30;50.90;;;;;;5097708;28;9334;-80
2022/06/25 03:03:35;;;;;;;;;26.00;26.00;28.30;50.40;;;;;;5097602;28;8786;-80
2022/06/25 03:06:01;;;;;;;;;31.33;30.33;28.30;50.20;;;;;;5097260;28;8759;-81
2022/06/25 03:08:27;;;;;;;;;30.00;30.00;28.20;50.30;;;;;;5097532;28;8841;-80
2022/06/25 03:10:53;;;;;;;;;28.33;28.33;28.20;50.70;;;;;;5097181;28;9394;-80
2022/06/25 03:13:19;;;;;;;;;31.33;30.33;28.20;51.00;;;;;;5097283;28;8885;-80
2022/06/25 03:15:45;;;;;;;;;32.33;31.33;28.20;50.80;;;;;;5097083;28;8767;-81
2022/06/25 03:18:11;;;;;;;;;31.00;30.33;28.20;51.00;;;;;;5096908;28;8803;-80
2022/06/25 03:20:37;;;;;;;;;35.67;33.33;28.20;51.20;;;;;;5096958;28;9425;-80
2022/06/25 03:23:03;;;;;;;;;28.00;28.00;28.20;51.20;;;;;;5096977;28;8779;-80
2022/06/25 03:25:30;;;;;;;;;29.67;29.67;28.10;52.60;;;;;;5095363;28;8772;-80
2022/06/25 03:27:56;;;;;;;;;35.33;33.33;28.20;51.50;;;;;;5082740;28;8853;-80
2022/06/25 03:30:21;;;;;;;;;34.00;32.00;28.20;51.60;;;;;;5096684;28;8897;-79
2022/06/25 03:32:47;;;;;;;;;34.00;32.33;28.20;51.80;;;;;;5095856;28;8788;-81
2022/06/25 03:35:13;;;;;;;;;35.00;33.00;28.10;53.10;;;;;;5092161;28;8901;-80
2022/06/25 03:37:39;;;;;;;;;36.33;34.33;28.10;52.10;;;;;;5076588;28;8816;-80
2022/06/25 03:40:05;;;;;;;;;36.33;34.00;28.10;52.10;;;;;;5058574;28;8816;-80
2022/06/25 03:42:31;;;;;;;;;37.33;34.00;28.10;51.80;;;;;;5083496;28;9456;-80
2022/06/25 03:44:57;;;;;;;;;37.33;35.00;28.10;51.90;;;;;;5076176;28;8793;-81
2022/06/25 03:47:22;;;;;;;;;37.00;34.33;28.10;52.00;;;;;;5076250;28;8876;-81
2022/06/25 03:49:48;;;;;;;;;40.33;36.00;28.10;52.00;;;;;;5076379;28;8856;-80
2022/06/25 03:52:15;;;;;;;;;40.00;36.00;28.10;51.90;;;;;;5083440;28;8869;-80
2022/06/25 03:54:41;;;;;;;;;38.00;35.00;28.00;52.00;;;;;;5096162;28;8930;-81
2022/06/25 03:57:07;;;;;;;;;39.67;36.00;28.00;52.30;;;;;;5096362;28;9423;-81
2022/06/25 03:59:32;;;;;;;;;25.00;25.00;28.00;52.50;;;;;;5096555;28;8763;-80
2022/06/25 04:01:58;;;;;;;;;46.00;40.00;28.00;52.50;;;;;;5096155;28;9362;-81
2022/06/25 04:04:24;;;;;;;;;32.33;31.33;28.10;53.00;;;;;;5087860;28;8781;-80
2022/06/25 04:06:50;;;;;;;;;33.67;32.67;28.00;53.30;;;;;;5075943;28;8855;-80
2022/06/25 04:09:16;;;;;;;;;36.33;33.67;28.00;53.60;;;;;;5075809;28;8777;-80
2022/06/25 04:11:42;;;;;;;;;49.00;42.67;28.00;54.10;;;;;;5075760;28;8769;-81
2022/06/25 04:14:07;;;;;;;;;49.67;42.33;28.00;53.80;;;;;;5075666;28;8848;-80
2022/06/25 04:16:33;;;;;;;;;52.25;45.00;28.00;53.90;;;;;;5075863;28;8774;-81
2022/06/25 04:18:59;;;;;;;;;50.33;43.33;27.90;54.00;;;;;;5075392;28;8793;-80
2022/06/25 04:21:26;;;;;;;;;32.33;30.33;27.80;54.40;;;;;;5075483;28;8766;-80
2022/06/25 04:23:52;;;;;;;;;36.00;33.33;27.90;54.20;;;;;;5075510;28;8872;-80
2022/06/25 04:26:18;;;;;;;;;39.67;36.33;27.90;54.10;;;;;;5075446;28;8963;-80
2022/06/25 04:31:29;;;;;;;;;30.00;30.00;28.00;53.60;;;;;;5095787;28;8720;-81
2022/06/25 04:33:55;;;;;;;;;32.67;31.67;28.10;53.40;;;;;;5095496;28;8787;-80
2022/06/25 04:36:21;;;;;;;;;34.00;32.67;28.00;53.40;;;;;;5095410;28;8862;-80
2022/06/25 04:38:46;;;;;;;;;36.33;34.00;27.80;54.20;;;;;;5091273;28;8825;-79
2022/06/25 04:41:12;;;;;;;;;42.00;37.33;27.80;54.70;;;;;;5074409;28;8782;-80
2022/06/25 04:43:38;;;;;;;;;41.33;36.00;27.80;55.00;;;;;;5084571;28;8806;-80
2022/06/25 04:46:04;;;;;;;;;38.33;35.33;27.80;54.70;;;;;;5074973;28;8754;-80
2022/06/25 04:48:30;;;;;;;;;36.67;33.67;27.80;54.70;;;;;;5075277;28;8774;-80
2022/06/25 04:50:55;;;;;;;;;45.67;39.33;27.90;54.40;;;;;;5074908;28;8774;-80
2022/06/25 04:53:21;;;;;;;;;39.00;36.00;28.10;54.10;;;;;;5075043;28;8766;-79
2022/06/25 04:55:47;;;;;;;;;44.33;38.33;28.20;53.60;;;;;;5074879;28;9485;-80
2022/06/25 04:58:13;;;;;;;;;40.33;36.00;28.20;53.30;;;;;;5074817;28;8782;-80
2022/06/25 05:00:39;;;;;;;;;41.67;36.00;28.20;53.00;;;;;;5075024;28;8770;-80
2022/06/25 05:03:05;;;;;;;;;38.67;35.00;28.30;52.40;;;;;;5057245;28;8824;-80
2022/06/25 05:05:31;;;;;;;;;38.67;35.33;28.30;51.80;;;;;;5074737;28;8762;-81
2022/06/25 05:07:57;;;;;;;;;38.67;35.33;28.30;51.30;;;;;;5074794;28;8825;-80
2022/06/25 05:10:23;;;;;;;;;47.67;39.67;28.40;51.20;;;;;;5074593;28;8755;-80
2022/06/25 05:15:33;;;;;;;;;43.67;37.67;28.60;50.90;;;;;;5074536;28;8797;-80
2022/06/25 05:17:59;;;;;;;;;43.33;37.33;28.80;50.90;;;;;;5074385;28;8801;-80
2022/06/25 05:20:25;;;;;;;;;37.67;34.67;28.90;50.80;;;;;;5074860;28;9392;-80
2022/06/25 05:22:51;;;;;;;;;43.33;37.33;29.10;50.40;;;;;;5074370;28;8762;-80
2022/06/25 05:25:17;;;;;;;;;36.00;33.33;29.10;50.20;;;;;;5080439;28;9308;-80
2022/06/25 05:27:43;;;;;;;;;39.00;35.33;29.00;49.70;;;;;;5094612;28;8776;-80
2022/06/25 05:30:09;;;;;;;;;43.67;38.33;29.10;49.60;;;;;;5094838;28;8898;-80
2022/06/25 05:32:35;;;;;;;;;40.33;36.33;29.20;49.50;;;;;;5094646;28;9481;-80
2022/06/25 05:35:02;;;;;;;;;39.33;35.33;29.30;50.00;;;;;;5086232;28;8908;-80
2022/06/25 05:37:28;;;;;;;;;41.67;37.33;29.30;49.90;;;;;;5074546;28;8826;-80
2022/06/25 05:39:53;;;;;;;;;43.33;37.67;29.40;49.30;;;;;;5056594;28;8859;-79
2022/06/25 05:42:22;;;;;;;;;32.00;31.00;29.40;49.10;;;;;;5074259;28;8762;-80
2022/06/25 05:44:48;;;;;;;;;39.33;35.33;29.50;48.80;;;;;;5074300;28;8790;-81
2022/06/25 05:47:14;;;;;;;;;37.00;34.00;29.60;48.90;;;;;;5074239;28;8789;-80
2022/06/25 05:49:40;;;;;;;;;43.00;38.00;29.60;48.60;;;;;;5074247;28;8791;-80
2022/06/25 05:52:06;;;;;;;;;43.33;38.00;29.50;48.20;;;;;;5074484;28;8797;-80
2022/06/25 05:54:32;;;;;;;;;42.00;37.00;29.60;48.50;;;;;;5078287;28;8819;-80
2022/06/25 05:56:58;;;;;;;;;44.67;39.00;29.70;48.20;;;;;;5096395;28;8800;-80
2022/06/25 05:59:23;;;;;;;;;34.67;32.33;29.80;47.90;;;;;;5098504;28;8779;-80
2022/06/25 06:01:49;;;;;;;;;40.67;36.33;29.80;48.10;;;;;;5098509;28;8764;-80
2022/06/25 06:04:15;;;;;;;;;34.67;32.67;29.80;48.30;;;;;;5098526;28;8751;-80
2022/06/25 06:06:41;;;;;;;;;40.33;36.33;29.80;48.40;;;;;;5098433;28;8795;-80
2022/06/25 06:09:07;;;;;;;;;36.33;33.67;29.70;48.00;;;;;;5098976;28;8837;-80
2022/06/25 06:11:32;;;;;;;;;43.67;38.33;29.70;48.20;;;;;;5098266;28;8780;-80
2022/06/25 06:13:58;;;;;;;;;37.67;34.67;29.80;48.50;;;;;;5098395;28;8908;-80
2022/06/25 06:16:24;;;;;;;;;37.33;34.33;29.90;48.40;;;;;;5098275;28;9405;-81
2022/06/25 06:18:49;;;;;;;;;37.67;34.67;29.90;47.80;;;;;;5097847;28;8926;-81
2022/06/25 06:21:15;;;;;;;;;36.67;34.00;30.00;47.40;;;;;;5098141;28;8766;-80
2022/06/25 06:23:41;;;;;;;;;39.67;35.67;30.00;47.30;;;;;;5098030;28;8779;-81
2022/06/25 06:26:07;;;;;;;;;46.33;39.33;30.20;47.40;;;;;;5080097;28;8884;-81
2022/06/25 06:28:32;;;;;;;;;40.67;36.33;30.30;47.10;;;;;;5088309;28;8812;-80
2022/06/25 06:30:59;;;;;;;;;32.33;31.33;30.40;47.20;;;;;;5087901;28;9052;-81
2022/06/25 06:33:25;;;;;;;;;38.33;34.00;30.10;46.60;;;;;;5087676;28;8794;-80
2022/06/25 06:35:51;;;;;;;;;35.00;32.67;29.90;46.50;;;;;;5077489;28;8758;-80
2022/06/25 06:38:17;;;;;;;;;35.67;33.33;29.90;46.30;;;;;;5077401;28;8906;-80
2022/06/25 06:40:42;;;;;;;;;33.67;32.00;30.10;46.40;;;;;;5079152;28;8782;-81
2022/06/25 06:43:08;;;;;;;;;31.67;30.67;30.10;46.10;;;;;;5086338;28;9500;-81
2022/06/25 06:45:34;;;;;;;;;30.00;29.67;29.90;46.90;;;;;;5077262;28;9483;-81
2022/06/25 06:48:00;;;;;;;;;33.67;32.33;29.70;47.50;;;;;;5087438;28;8784;-80
2022/06/25 06:50:25;;;;;;;;;36.33;33.33;29.80;47.50;;;;;;5097494;28;8794;-80
2022/06/25 06:52:51;;;;;;;;;27.00;27.00;30.00;47.20;;;;;;5097725;28;8836;-81
2022/06/25 06:55:17;;;;;;;;;30.67;30.00;30.10;46.70;;;;;;5097624;28;8815;-80
2022/06/25 06:57:43;;;;;;;;;32.00;31.00;29.80;46.30;;;;;;5097444;28;8760;-81
2022/06/25 07:00:09;;;;;;;;;29.67;29.33;29.70;46.50;;;;;;5097327;28;8790;-80
2022/06/25 07:02:35;;;;;;;;;30.67;30.00;29.80;46.60;;;;;;5097598;28;8775;-80
2022/06/25 07:05:01;;;;;;;;;34.67;32.67;29.90;46.90;;;;;;5097176;28;8780;-82
2022/06/25 07:07:27;;;;;;;;;31.33;30.67;30.10;46.60;;;;;;5096303;28;8792;-81
2022/06/25 07:09:53;;;;;;;;;34.00;32.00;30.20;46.60;;;;;;5078746;28;8796;-81
2022/06/25 07:12:18;;;;;;;;;27.33;27.33;30.50;46.80;;;;;;5097221;28;8764;-82
2022/06/25 07:14:44;;;;;;;;;35.00;33.00;30.40;47.20;;;;;;5094942;28;8788;-81
2022/06/25 07:17:10;;;;;;;;;36.33;33.67;30.30;47.20;;;;;;5090636;28;8788;-81
2022/06/25 07:19:35;;;;;;;;;33.67;32.33;30.40;47.30;;;;;;5087670;28;8834;-81
2022/06/25 07:22:02;;;;;;;;;29.67;29.67;30.50;46.80;;;;;;5077501;28;8900;-79
2022/06/25 07:24:27;;;;;;;;;35.67;33.33;30.60;46.70;;;;;;5086468;28;8817;-80
2022/06/25 07:26:53;;;;;;;;;29.67;29.67;30.70;46.10;;;;;;5078912;28;8784;-81
2022/06/25 07:29:19;;;;;;;;;32.00;31.00;30.70;46.10;;;;;;5085807;28;8871;-83
2022/06/25 07:31:45;;;;;;;;;33.00;32.00;30.80;45.80;;;;;;5090711;28;8785;-83
2022/06/25 07:34:12;;;;;;;;;33.00;32.00;30.50;46.10;;;;;;5111342;28;8831;-80
2022/06/25 07:36:37;;;;;;;;;30.33;30.00;30.60;46.20;;;;;;5088567;28;8888;-82
2022/06/25 07:39:04;;;;;;;;;34.33;32.33;30.70;46.30;;;;;;5087783;28;8805;-81
2022/06/25 07:41:30;;;;;;;;;29.67;29.67;30.60;47.00;;;;;;5083790;28;8770;-81
2022/06/25 07:43:56;;;;;;;;;24.67;24.67;30.80;46.70;;;;;;5084845;28;8799;-80
2022/06/25 07:46:22;;;;;;;;;30.33;30.33;30.80;45.90;;;;;;5081358;28;8774;-81
2022/06/25 07:48:47;;;;;;;;;27.00;27.00;30.90;45.80;;;;;;5087362;28;8973;-82
2022/06/25 07:53:57;;;;;;;;;28.00;28.00;31.20;45.40;;;;;;5078233;28;8841;-80
2022/06/25 07:56:24;;;;;;;;;30.33;30.00;31.40;45.30;;;;;;5081102;28;8868;-81
2022/06/25 07:58:50;;;;;;;;;34.00;32.33;31.50;45.40;;;;;;5089796;28;8784;-81
2022/06/25 08:01:16;;;;;;;;;29.67;29.67;31.60;45.20;;;;;;5096428;28;8776;-85
2022/06/25 08:03:42;;;;;;;;;31.67;30.67;31.70;44.70;;;;;;5096046;28;8853;-77
2022/06/25 08:06:08;;;;;;;;;32.00;31.00;31.80;44.50;;;;;;5095963;28;8791;-77
2022/06/25 08:08:34;;;;;;;;;32.33;31.33;32.00;44.70;;;;;;5096302;28;8811;-79
2022/06/25 08:11:00;;;;;;;;;33.00;31.67;32.10;44.00;;;;;;5096207;28;8901;-77
2022/06/25 08:13:26;;;;;;;;;32.67;31.67;32.10;43.90;;;;;;5095928;28;9398;-79
2022/06/25 08:15:53;;;;;;;;;33.67;32.00;32.20;43.80;;;;;;5093661;28;8812;-77
2022/06/25 08:18:19;;;;;;;;;32.00;31.00;32.30;43.50;;;;;;5095716;28;8808;-82
2022/06/25 08:20:45;;;;;;;;;27.33;27.33;32.30;43.30;;;;;;5095224;28;8798;-81
2022/06/25 08:23:11;;;;;;;;;28.33;28.33;32.50;43.30;;;;;;5094983;28;8777;-78
2022/06/25 08:25:37;;;;;;;;;29.00;29.00;32.50;43.10;;;;;;5095658;28;8797;-79
2022/06/25 08:28:03;;;;;;;;;31.33;30.33;32.50;43.40;;;;;;5095165;28;8903;-74
2022/06/25 08:30:29;;;;;;;;;28.33;28.33;32.50;42.10;;;;;;5083616;28;8814;-76
2022/06/25 08:32:55;;;;;;;;;30.67;30.00;32.50;41.60;;;;;;5082176;28;8871;-76
2022/06/25 08:35:22;;;;;;;;;24.67;24.67;32.70;42.40;;;;;;5061029;28;8921;-77
2022/06/25 08:37:50;;;;;;;;;31.67;30.67;33.10;41.60;;;;;;5076169;28;8805;-75
2022/06/25 08:40:18;;;;;;;;;30.67;30.33;33.70;41.20;;;;;;5085089;28;8778;-77
2022/06/25 08:42:44;;;;;;;;;30.67;30.00;34.10;40.30;;;;;;5086515;28;8801;-77
2022/06/25 08:45:10;;;;;;;;;22.00;22.00;34.00;39.40;;;;;;5074985;28;8777;-76
2022/06/25 08:47:45;;;;;;;;;34.67;32.67;34.00;39.70;;;;;;5074924;28;8951;-75
2022/06/25 08:50:14;;;;;;;;;5.67;4.33;34.10;39.70;;;;;;5074886;28;8782;-76
2022/06/25 08:52:50;;;;;;;;;31.00;30.00;33.90;39.30;;;;;;5074749;28;8764;-76
2022/06/25 08:55:28;;;;;;;;;31.33;30.33;34.20;38.80;;;;;;5085432;28;8807;-76
2022/06/25 08:57:55;;;;;;;;;33.00;32.00;34.40;38.40;;;;;;5071586;28;8804;-76
2022/06/25 09:00:21;;;;;;;;;31.00;30.00;34.70;38.70;;;;;;5074797;28;8776;-76
2022/06/25 09:02:47;;;;;;;;;27.00;27.00;34.90;38.00;;;;;;5074766;28;8878;-76
2022/06/25 09:05:12;;;;;;;;;33.00;32.00;34.90;37.00;;;;;;5074680;28;8774;-76
2022/06/25 09:07:51;;;;;;;;;27.00;27.00;34.80;37.00;;;;;;5074694;28;8798;-76
2022/06/25 09:10:21;;;;;;;;;29.00;29.00;34.80;37.20;;;;;;5074898;28;8782;-75
2022/06/25 09:12:54;;;;;;;;;34.00;32.33;34.50;37.90;;;;;;5074634;28;8837;-75
2022/06/25 09:15:22;;;;;;;;;34.33;32.33;34.40;38.90;;;;;;5078210;28;8801;-76
2022/06/25 09:17:50;;;;;;;;;27.67;27.67;34.20;37.80;;;;;;5082191;28;8798;-79
2022/06/25 09:20:16;;;;;;;;;29.33;29.33;34.30;37.70;;;;;;5086299;28;9468;-75
2022/06/25 09:23:05;;;;;;;;;27.00;27.00;34.40;37.50;;;;;;5078204;28;8762;-73
2022/06/25 09:25:33;;;;;;;;;29.00;29.00;34.50;36.30;;;;;;5086218;28;8789;-75
2022/06/25 09:27:59;;;;;;;;;23.33;23.33;35.00;36.60;;;;;;5076655;28;8816;-75
2022/06/25 09:30:29;;;;;;;;;23.67;23.67;35.00;35.00;;;;;;5082146;28;8790;-75
2022/06/25 09:33:01;;;;;;;;;21.33;21.33;35.30;34.70;;;;;;5076089;28;8773;-72
2022/06/25 09:35:38;;;;;;;;;21.00;21.00;35.70;34.60;;;;;;5074146;28;11534;-73
2022/06/25 09:38:09;;;;;;;;;20.00;20.00;36.00;34.00;;;;;;5074427;28;8911;-75
2022/06/25 09:40:42;;;;;;;;;25.00;25.00;36.00;32.70;;;;;;5081757;28;8794;-80
2022/06/25 09:43:13;;;;;;;;;22.00;22.00;35.90;33.10;;;;;;5082876;28;12183;-76
2022/06/25 09:45:41;;;;;;;;;17.67;17.67;36.00;33.10;;;;;;5086275;28;8774;-75
2022/06/25 09:48:27;;;;;;;;;15.50;15.50;36.20;32.80;;;;;;5094223;28;11434;-76
2022/06/25 09:51:11;;;;;;;;;17.00;17.00;36.20;29.80;;;;;;5077933;28;11469;-77
2022/06/25 09:53:56;;;;;;;;;19.00;19.00;36.40;30.80;;;;;;5083724;28;11462;-73
2022/06/25 09:56:30;;;;;;;;;18.33;18.33;36.70;30.00;;;;;;5075004;28;11478;-75
2022/06/25 09:58:56;;;;;;;;;14.33;14.33;36.80;30.20;;;;;;5085011;28;11484;-75
2022/06/25 10:01:28;;;;;;;;;13.75;13.75;36.60;29.20;;;;;;5073845;28;11456;-74
2022/06/25 10:03:55;;;;;;;;;10.00;10.00;36.60;28.20;;;;;;5073924;28;11384;-76
2022/06/25 10:06:23;;;;;;;;;12.00;12.00;36.40;28.00;;;;;;5074141;28;11405;-76
2022/06/25 10:08:55;;;;;;;;;14.00;14.00;36.60;29.10;;;;;;5074219;28;11591;-76
2022/06/25 10:11:26;;;;;;;;;11.75;11.75;37.00;28.30;;;;;;5074003;28;11429;-74
2022/06/25 10:13:53;;;;;;;;;12.25;12.25;37.00;27.00;;;;;;5085163;28;11466;-75
2022/06/25 10:16:21;;;;;;;;;13.00;13.00;37.00;27.40;;;;;;5088605;28;11539;-74
2022/06/25 10:18:49;;;;;;;;;13.50;13.50;37.20;28.30;;;;;;5083545;28;11484;-73
2022/06/25 10:21:16;;;;;;;;;15.25;15.25;37.20;27.70;;;;;;5080393;28;11466;-77
2022/06/25 10:23:44;;;;;;;;;11.75;11.75;37.40;28.00;;;;;;5082655;28;11572;-78
2022/06/25 10:26:10;;;;;;;;;15.25;15.25;37.60;27.40;;;;;;5073617;28;11453;-77
2022/06/25 10:28:36;;;;;;;;;14.25;14.25;37.80;27.50;;;;;;5078901;28;11448;-73
2022/06/25 10:31:14;;;;;;;;;16.00;16.00;37.50;27.50;;;;;;5079541;28;11458;-75
2022/06/25 10:34:03;;;;;;;;;11.50;11.50;37.50;27.90;;;;;;5073566;28;11456;-74
2022/06/25 10:36:58;;;;;;;;;10.75;10.75;37.50;26.80;;;;;;5073531;28;11499;-73
2022/06/25 10:39:29;;;;;;;;;10.25;10.25;37.80;27.00;;;;;;5079700;28;11441;-73
2022/06/25 10:45:04;;;;;;;;;12.50;12.50;37.40;27.60;;;;;;5077286;28;11435;-73
2022/06/25 10:47:41;;;;;;;;;12.50;12.50;37.50;27.90;;;;;;5077377;28;11543;-74
2022/06/25 10:50:22;;;;;;;;;10.75;10.75;37.50;26.70;;;;;;5085549;28;11428;-77
2022/06/25 10:53:06;;;;;;;;;13.00;13.00;37.10;26.80;;;;;;5085129;28;11478;-74
2022/06/25 10:55:34;;;;;;;;;12.75;12.75;37.50;26.50;;;;;;5072631;28;11487;-74
2022/06/25 10:58:22;;;;;;;;;15.50;15.50;37.90;27.80;;;;;;5085062;28;11504;-75
2022/06/25 11:01:02;;;;;;;;;19.00;19.00;38.40;28.80;;;;;;5086388;28;11577;-76
2022/06/25 11:03:28;;;;;;;;;19.50;19.50;38.60;28.40;;;;;;5088943;28;11550;-76
2022/06/25 11:05:56;;;;;;;;;22.00;22.00;38.90;28.50;;;;;;5087082;28;11466;-75
2022/06/25 11:08:31;;;;;;;;;19.67;19.67;39.20;29.00;;;;;;5077254;28;8852;-76
2022/06/25 11:10:57;;;;;;;;;20.00;20.00;39.50;28.50;;;;;;5076825;28;12153;-76
2022/06/25 11:13:27;;;;;;;;;20.67;20.67;39.60;29.00;;;;;;5084812;28;11510;-77
2022/06/25 11:15:53;;;;;;;;;19.00;18.00;39.10;28.80;;;;;;5089317;28;8798;-76
2022/06/25 11:18:19;;;;;;;;;18.25;18.25;38.90;28.40;;;;;;5096731;28;11649;-75
2022/06/25 11:20:46;;;;;;;;;18.50;18.50;38.80;27.60;;;;;;5090107;28;8795;-72
2022/06/25 11:23:14;;;;;;;;;19.00;19.00;38.50;27.50;;;;;;5094553;28;8784;-74
2022/06/25 11:28:48;;;;;;;;;12.25;12.25;37.90;27.80;;;;;;5087712;28;11427;-77
2022/06/25 11:31:24;;;;;;;;;16.25;16.25;38.00;27.40;;;;;;5085945;28;11460;-79
2022/06/25 11:33:52;;;;;;;;;16.33;16.33;37.90;28.40;;;;;;5077015;28;11486;-80
2022/06/25 11:36:19;;;;;;;;;17.50;17.50;37.50;30.00;;;;;;5094637;28;11470;-80
2022/06/25 11:38:51;;;;;;;;;16.00;16.00;36.80;31.10;;;;;;5094603;28;11539;-78
2022/06/25 11:41:26;;;;;;;;;17.33;17.33;37.50;31.50;;;;;;5096611;28;11485;-78
2022/06/25 11:43:52;;;;;;;;;17.00;17.00;38.10;31.10;;;;;;5091960;28;11447;-79
2022/06/25 11:46:19;;;;;;;;;15.75;15.75;39.20;30.10;;;;;;5086943;28;11473;-78
2022/06/25 11:48:50;;;;;;;;;21.00;21.00;39.40;29.10;;;;;;5078647;28;11442;-78
2022/06/25 11:51:24;;;;;;;;;17.50;17.50;39.20;29.10;;;;;;5076312;28;12111;-77
2022/06/25 11:53:50;;;;;;;;;18.67;18.67;38.20;30.10;;;;;;5089980;28;11501;-80
2022/06/25 11:56:16;;;;;;;;;17.50;17.50;37.70;30.60;;;;;;5101362;28;11495;-80
2022/06/25 11:58:42;;;;;;;;;17.00;17.00;36.70;31.40;;;;;;5094993;28;11471;-78
2022/06/25 12:01:08;;;;;;;;;16.00;16.00;36.80;32.10;;;;;;5094975;28;11478;-79
2022/06/25 12:03:34;;;;;;;;;13.67;13.67;36.20;33.40;;;;;;5088487;28;8794;-78
2022/06/25 12:06:02;;;;;;;;;19.00;19.00;35.90;33.10;;;;;;5095800;28;11523;-80
2022/06/25 12:08:28;;;;;;;;;18.33;18.33;36.50;33.10;;;;;;5087867;28;11648;-76
2022/06/25 12:10:59;;;;;;;;;18.67;18.67;37.40;32.30;;;;;;5075587;28;11493;-77
2022/06/25 12:13:30;;;;;;;;;20.00;20.00;37.10;31.70;;;;;;5075783;28;12093;-77
2022/06/25 12:16:00;;;;;;;;;16.00;16.00;36.60;32.20;;;;;;5075522;28;11463;-77
2022/06/25 12:18:43;;;;;;;;;18.00;18.00;36.90;33.30;;;;;;5075369;28;11462;-77
2022/06/25 12:21:16;;;;;;;;;20.00;20.00;36.50;32.50;;;;;;5075352;28;11461;-77
2022/06/25 12:23:52;;;;;;;;;17.33;17.33;36.30;33.40;;;;;;5083039;28;11529;-77
2022/06/25 12:26:51;;;;;;;;;19.00;19.00;36.30;33.20;;;;;;5116005;28;11440;-79
2022/06/25 12:29:23;;;;;;;;;17.33;17.33;36.30;33.20;;;;;;5115751;28;11444;-76
2022/06/25 12:31:56;;;;;;;;;18.00;18.00;36.10;36.70;;;;;;5116077;28;12115;-77
2022/06/25 12:34:24;;;;;;;;;20.33;20.33;36.20;37.40;;;;;;5115202;28;11534;-76
2022/06/25 12:36:50;;;;;;;;;15.00;15.00;35.70;38.10;;;;;;5114886;28;11430;-76
2022/06/25 12:39:35;;;;;;;;;20.33;20.33;35.10;38.90;;;;;;5115284;28;12103;-78
2022/06/25 12:42:04;;;;;;;;;18.67;18.67;35.60;39.10;;;;;;5090433;28;12107;-76
2022/06/25 12:44:38;;;;;;;;;19.33;19.33;36.20;38.60;;;;;;5086771;28;11470;-77
2022/06/25 12:47:14;;;;;;;;;16.00;16.00;36.90;36.50;;;;;;5085787;28;12129;-76
2022/06/25 12:49:46;;;;;;;;;23.00;23.00;37.90;35.80;;;;;;5079666;28;11436;-76
2022/06/25 12:52:16;;;;;;;;;17.33;17.33;38.90;34.40;;;;;;5079776;28;11618;-75
2022/06/25 12:54:45;;;;;;;;;20.75;20.75;39.20;33.40;;;;;;5107415;28;11466;-76
2022/06/25 12:57:30;;;;;;;;;19.00;19.00;39.30;32.10;;;;;;5115277;28;11529;-77
2022/06/25 12:59:58;;;;;;;;;20.33;20.33;39.40;31.50;;;;;;5115399;28;12438;-78
2022/06/25 13:02:24;;;;;;;;;14.25;14.25;39.50;29.60;;;;;;5115443;28;11407;-77